createdAt,value
2022-11-21T00:01:49.399Z,39.2
2022-11-21T00:06:51.755Z,40.4
2022-11-21T00:11:53.972Z,40.2
2022-11-21T00:16:57.404Z,40.8
2022-11-21T00:22:00.074Z,43.5
2022-11-21T00:27:02.238Z,44.6
2022-11-21T00:32:04.313Z,41.5
2022-11-21T00:37:06.663Z,41.5
2022-11-21T00:38:19.122Z,44.8
2022-11-21T00:43:21.317Z,41.7
2022-11-21T00:48:23.320Z,39.3
2022-11-21T00:53:25.380Z,38.8
2022-11-21T00:58:27.369Z,42.6
2022-11-21T01:03:29.893Z,44.1
2022-11-21T01:08:31.892Z,42.7
2022-11-21T01:13:33.985Z,42.9
2022-11-21T01:18:36.070Z,40.9
2022-11-21T01:23:38.024Z,41.9
2022-11-21T01:28:40.036Z,41.8
2022-11-21T01:33:42.134Z,40.3
2022-11-21T01:38:44.134Z,39.4
2022-11-21T01:43:46.717Z,37.6
2022-11-21T01:48:48.817Z,38.4
2022-11-21T01:53:50.763Z,36.4
2022-11-21T01:58:52.808Z,36.9
2022-11-21T02:03:54.788Z,38.3
2022-11-21T02:08:56.912Z,39.6
2022-11-21T02:13:58.891Z,37.2
2022-11-21T02:19:01.604Z,37.4
2022-11-21T02:24:03.607Z,35.7
2022-11-21T02:29:05.573Z,34.7
2022-11-21T02:34:07.651Z,33.4
2022-11-21T02:39:09.950Z,33.9
2022-11-21T02:44:12.434Z,34.4
2022-11-21T02:49:14.476Z,32.7
2022-11-21T02:54:17.065Z,33.7
2022-11-21T02:59:19.338Z,32.2
2022-11-21T03:04:21.317Z,34.3
2022-11-21T03:09:23.551Z,37.1
2022-11-21T03:14:25.830Z,37.5
2022-11-21T03:19:29.823Z,34.1
2022-11-21T03:24:32.122Z,39.9
2022-11-21T03:29:34.140Z,36.9
2022-11-21T03:34:36.159Z,36.1
2022-11-21T03:39:38.257Z,35.1
2022-11-21T03:44:40.649Z,35.8
2022-11-21T03:49:42.714Z,36.5
2022-11-21T03:54:44.929Z,39
2022-11-21T03:59:47.307Z,39.6
2022-11-21T04:04:49.288Z,38.4
2022-11-21T04:09:51.554Z,36.2
2022-11-21T04:14:53.457Z,43.6
2022-11-21T04:19:55.508Z,33.6
2022-11-21T04:24:57.638Z,34
2022-11-21T04:29:59.563Z,33.8
2022-11-21T04:35:02.174Z,33.2
2022-11-21T04:40:04.562Z,29.6
2022-11-21T04:45:06.970Z,34.6
2022-11-21T04:50:08.910Z,33.6
2022-11-21T04:55:10.906Z,31.2
2022-11-21T05:00:13.127Z,33.9
2022-11-21T05:05:13.437Z,75.2
2022-11-21T05:10:15.531Z,33.7
2022-11-21T05:15:21.783Z,33.2
2022-11-21T05:20:26.777Z,32.6
2022-11-21T05:25:34.039Z,30.5
2022-11-21T05:30:36.312Z,28.3
2022-11-21T05:35:42.827Z,29.8
2022-11-21T05:40:45.504Z,27.6
2022-11-21T05:45:48.324Z,28.5
2022-11-21T05:50:51.165Z,25.4
2022-11-21T05:55:53.193Z,23.2
2022-11-21T06:00:59.509Z,26.6
2022-11-21T06:06:01.866Z,27
2022-11-21T06:11:04.054Z,24.8
2022-11-21T06:16:06.085Z,25.6
2022-11-21T06:21:08.142Z,29.1
2022-11-21T06:26:10.367Z,25.7
2022-11-21T06:31:12.492Z,28
2022-11-21T06:36:14.483Z,26.7
2022-11-21T06:41:16.690Z,31.2
2022-11-21T06:46:19.909Z,36.8
2022-11-21T06:51:21.880Z,32.1
2022-11-21T06:56:24.036Z,72.3
2022-11-21T07:01:24.496Z,34.8
2022-11-21T07:06:26.725Z,41.7
2022-11-21T07:11:28.739Z,31.7
2022-11-21T07:16:30.741Z,34.5
2022-11-21T07:21:32.705Z,35.3
2022-11-21T07:26:35.070Z,35.6
2022-11-21T07:31:37.020Z,38.3
2022-11-21T07:36:38.967Z,40.8
2022-11-21T07:41:40.897Z,50.6
2022-11-21T07:46:43.213Z,44.5
2022-11-21T07:51:45.204Z,44.9
2022-11-21T07:56:47.732Z,40.8
2022-11-21T08:01:49.781Z,48.7
2022-11-21T08:06:52.077Z,50.1
2022-11-21T08:11:54.177Z,38.7
2022-11-21T08:16:56.325Z,59.6
2022-11-21T08:21:56.708Z,54.8
2022-11-21T08:26:58.679Z,39.7
2022-11-21T08:32:00.665Z,31.4
2022-11-21T08:37:02.671Z,39.8
2022-11-21T08:42:04.782Z,27.1
2022-11-21T08:47:06.797Z,31.7
2022-11-21T08:52:08.874Z,21.7
2022-11-21T08:57:11.271Z,23.5
2022-11-21T09:02:13.645Z,19.6
2022-11-21T09:07:15.620Z,20.2
2022-11-21T09:12:17.876Z,20
2022-11-21T09:17:19.956Z,14.3
2022-11-21T09:22:22.224Z,12
2022-11-21T09:27:24.185Z,12.5
2022-11-21T09:32:26.226Z,11.5
2022-11-21T09:37:28.315Z,9.5
2022-11-21T09:42:30.340Z,9.6
2022-11-21T09:47:32.663Z,7.7
2022-11-21T09:52:34.657Z,8.8
2022-11-21T09:57:36.736Z,7.1
2022-11-21T10:02:38.812Z,6.6
2022-11-21T10:07:40.888Z,6.1
2022-11-21T10:12:43.389Z,5.6
2022-11-21T10:17:45.667Z,5.7
2022-11-21T10:22:49.722Z,6.7
2022-11-21T10:27:51.788Z,5.7
2022-11-21T10:32:53.729Z,6.2
2022-11-21T10:37:55.744Z,7.9
2022-11-21T10:42:57.775Z,6.6
2022-11-21T10:48:02.638Z,7.3
2022-11-21T10:53:09.767Z,6.9
2022-11-21T10:58:12.025Z,6.4
2022-11-21T11:03:13.968Z,7.1
2022-11-21T11:08:15.954Z,7.1
2022-11-21T11:13:44.964Z,7.7
2022-11-21T11:18:21.788Z,8
2022-11-21T11:23:24.350Z,9
2022-11-21T11:28:26.461Z,8.8
2022-11-21T11:33:28.480Z,8.2
2022-11-21T11:38:30.407Z,9.1
2022-11-21T11:43:32.440Z,9.3
2022-11-21T11:48:45.233Z,10.2
2022-11-21T11:53:42.229Z,8.9
2022-11-21T11:58:45.252Z,10.6
2022-11-21T12:03:47.426Z,9.1
2022-11-21T12:08:48.617Z,9.8
2022-11-21T12:13:50.914Z,10
2022-11-21T12:18:52.972Z,8.9
2022-11-21T12:23:55.187Z,8.6
2022-11-21T12:28:57.262Z,8.6
2022-11-21T12:33:59.346Z,7.4
2022-11-21T12:39:01.355Z,8.6
2022-11-21T12:44:03.411Z,8.5
2022-11-21T12:49:05.577Z,8.3
2022-11-21T12:54:07.487Z,9.3
2022-11-21T12:59:09.804Z,8.6
2022-11-21T13:04:12.308Z,8.8
2022-11-21T13:09:14.263Z,8.8
2022-11-21T13:14:16.241Z,9
2022-11-21T13:19:18.217Z,9.1
2022-11-21T13:24:20.252Z,8.8
2022-11-21T13:29:22.304Z,7.1
2022-11-21T13:34:24.273Z,7.5
2022-11-21T13:39:27.738Z,9.1
2022-11-21T13:44:31.558Z,8.8
2022-11-21T13:49:33.956Z,11.6
2022-11-21T13:54:35.927Z,15.6
2022-11-21T13:59:37.941Z,15.9
2022-11-21T14:04:40.064Z,19.6
2022-11-21T14:09:42.115Z,17.1
2022-11-21T14:14:44.094Z,15.2
2022-11-21T14:19:46.107Z,16.3
2022-11-21T14:24:49.448Z,14.1
2022-11-21T14:29:51.448Z,11.5
2022-11-21T14:34:53.434Z,9.4
2022-11-21T14:39:57.002Z,10.4
2022-11-21T14:44:59.703Z,11
2022-11-21T14:50:06.775Z,15
2022-11-21T15:00:20.511Z,14.4
2022-11-21T15:05:12.463Z,13.8
2022-11-21T15:10:30.792Z,12.7
2022-11-21T15:15:15.621Z,15.8
2022-11-21T15:20:17.603Z,14.5
2022-11-21T15:25:19.609Z,15.7
2022-11-21T15:30:21.737Z,14.4
2022-11-21T15:35:27.714Z,14.4
2022-11-21T15:40:23.886Z,13.9
2022-11-21T15:45:26.031Z,14.2
2022-11-21T15:50:28.106Z,12.7
2022-11-21T15:55:30.026Z,13.5
2022-11-21T16:00:32.071Z,13.4
2022-11-21T16:05:34.540Z,13.8
2022-11-21T16:10:36.575Z,14.7
2022-11-21T16:15:38.821Z,17.1
2022-11-21T16:20:41.629Z,16.6
2022-11-21T16:25:44.481Z,17
2022-11-21T16:30:47.605Z,34.2
2022-11-21T16:35:48.119Z,17.9
2022-11-21T16:40:50.443Z,18.3
2022-11-21T16:45:52.408Z,20.6
2022-11-21T16:50:54.593Z,21.9
2022-11-21T16:55:56.606Z,19.8
2022-11-21T17:00:59.320Z,24.1
2022-11-21T17:06:01.794Z,25
2022-11-21T17:11:03.892Z,24.1
2022-11-21T17:16:06.330Z,29.4
2022-11-21T17:21:08.382Z,28.1
2022-11-21T17:26:10.364Z,21.9
2022-11-21T17:31:12.360Z,18.5
2022-11-21T17:36:14.476Z,17.7
2022-11-21T17:41:16.532Z,20.2
2022-11-21T17:46:18.537Z,22.5
2022-11-21T17:51:20.755Z,22.7
2022-11-21T17:56:22.895Z,22
2022-11-21T18:01:25.023Z,23.9
2022-11-21T18:06:28.363Z,28.9
2022-11-21T18:11:34.546Z,27.5
2022-11-21T18:16:31.947Z,31.1
2022-11-21T18:21:34.060Z,25.9
2022-11-21T18:26:36.184Z,47.9
2022-11-21T18:31:36.554Z,25.4
2022-11-21T18:36:38.593Z,28.9
2022-11-21T18:41:40.592Z,32.6
2022-11-21T18:46:42.663Z,33.9
2022-11-21T18:51:44.955Z,31.8
2022-11-21T18:56:48.264Z,29.4
2022-11-21T19:01:50.278Z,30.9
2022-11-21T19:06:52.822Z,29.6
2022-11-21T19:11:54.802Z,32.8
2022-11-21T19:16:57.159Z,30.6
2022-11-21T19:21:59.239Z,28.9
2022-11-21T19:27:01.645Z,28.4
2022-11-21T19:32:03.691Z,27.6
2022-11-21T19:37:05.717Z,26.9
2022-11-21T19:42:07.906Z,28.7
2022-11-21T19:47:09.970Z,31.7
2022-11-21T19:52:12.485Z,28.4
2022-11-21T19:57:14.702Z,27.7
2022-11-21T20:02:16.802Z,26.3
2022-11-21T20:07:18.864Z,25.9
2022-11-21T20:12:21.381Z,25.8
2022-11-21T20:17:23.564Z,24.3
2022-11-21T20:22:25.619Z,23.7
2022-11-21T20:27:27.619Z,23.1
2022-11-21T20:32:29.642Z,24.7
2022-11-21T20:37:31.655Z,23.4
2022-11-21T20:42:33.644Z,23.1
2022-11-21T20:47:35.778Z,22.9
2022-11-21T20:57:44.031Z,26.8
2022-11-21T21:02:46.104Z,28.8
2022-11-21T21:07:48.522Z,26.5
2022-11-21T21:12:51.014Z,24.3
2022-11-21T21:17:52.954Z,26.6
2022-11-21T21:22:54.930Z,23.7
2022-11-21T21:27:56.966Z,24.2
2022-11-21T21:33:00.216Z,24.4
2022-11-21T21:38:06.179Z,25.9
2022-11-21T21:43:10.785Z,22.7
2022-11-21T21:48:12.768Z,23.9
2022-11-21T21:53:14.817Z,23.7
2022-11-21T21:58:16.939Z,24.5
2022-11-21T22:03:18.878Z,24.6
2022-11-21T22:08:20.971Z,22.4
2022-11-21T22:13:23.154Z,22.6
2022-11-21T22:18:25.102Z,24.8
2022-11-21T22:23:27.019Z,27.4
2022-11-21T22:28:29.067Z,26.5
2022-11-21T22:33:31.220Z,25
2022-11-21T22:38:33.146Z,25.4
2022-11-21T22:43:35.139Z,30.7
2022-11-21T22:48:37.228Z,33.3
2022-11-21T22:53:40.379Z,31.2
2022-11-21T22:58:42.686Z,29
2022-11-21T23:03:44.698Z,31
2022-11-21T23:08:47.218Z,44.5
2022-11-21T23:13:49.409Z,44.8
2022-11-21T23:18:51.416Z,63.7
2022-11-21T23:23:53.424Z,92.2
2022-11-21T23:28:55.444Z,141.1
2022-11-21T23:33:56.010Z,73.8
2022-11-21T23:38:58.097Z,81.8
2022-11-21T23:44:00.067Z,89.2
2022-11-21T23:49:02.105Z,89.1
2022-11-21T23:54:04.317Z,83.1
2022-11-21T23:59:06.288Z,72.9
